<?xml version="1.0" encoding="UTF-8" standalone="no" ?>
<gpx xmlns="http://www.topografix.com/GPX/1/1" xmlns:xsi="http://www.w3.org/2001/XMLSchema-instance" xsi:schemaLocation="http://www.topografix.com/GPX/1/1 http://www.topografix.com/GPX/1/1/gpx.xsd" version="1.1" creator="VisuGPX - https://www.visugpx.com">
  <metadata>
    <name>Rando La Foret Fouesnant</name>
    <desc><![CDATA[Entre terre et mer à la Foret Fouesnant en Finistère]]></desc>
  </metadata>
  <wpt lat="47.90953" lon="-3.97756">
    <ele>5.1</ele>
    <name><![CDATA[0000124]]></name>
    <type><![CDATA[Point de départ]]></type>
  </wpt>
  <wpt lat="47.90899" lon="-3.97823">
    <ele>3.1</ele>
    <name><![CDATA[0000125]]></name>
    <desc><![CDATA[<p><br /><h3>Nom: Segment: 1</h3><br />Heure de départ: 02/12/2019 13:57<br/>Heure d'arrivée: 02/12/2019 17:13<br/>Distance: 11,8km (03:16)<br/>Temps déplacement: 02:34<br/>Vitesse moyenne: 3,61 km/h<br/>Vitesse moyenne mouv.: 4,58 km/h<br/>Vitesse Max.: 6,44 km/h<br/>Altitude minimale: -3 m<br/>Altitude maximale: 53 m<br/>Vitesse de montée: 146,3 m/h<br/>Vitesse de descente: -156,1 m/h<br/>Gain d'altitude: 229 m<br/>Perte d'altitude: -233 m<br/>Temps de montée: 01:34<br/>Temps de descente: 01:29<br/></p>]]></desc>
    <type><![CDATA[Point d'arrivée]]></type>
  </wpt>
  <trk>
    <name><![CDATA[La forêt Fouesnant 2019-02-12 13:57]]></name>
    <desc><![CDATA[<p>Heure de départ: 02/12/2019 13:57<br/>Heure d'arrivée: 02/12/2019 17:13<br/>Distance: 11,8 km (03:16)<br/>Temps déplacement: 02:34<br/>Vitesse moyenne: 3,61 km/h<br/>Vitesse moyenne mouv.: 4,59 km/h<br/>Vitesse Max.: 6,44 km/h<br/>Altitude minimale: -3 m<br/>Altitude maximale: 53 m<br/>Vitesse de montée: 126,4 m/h<br/>Vitesse de descente: -130,5 m/h<br/>Gain d'altitude: 201 m<br/>Perte d'altitude: -203 m<br/>Temps de montée: 01:35<br/>Temps de descente: 01:33<br/></p><hr align="center" width="480" style="height: 2px; width: 517px"/>]]></desc>
    <trkseg>
      <trkpt lat="47.90953" lon="-3.97756">
        <ele>5.1</ele>
        <time>2019-02-12T12:57:30Z</time>
      </trkpt>
      <trkpt lat="47.90936" lon="-3.97748">
        <ele>2.11</ele>
        <time>2019-02-12T13:02:15Z</time>
      </trkpt>
      <trkpt lat="47.90929" lon="-3.97775">
        <ele>1.38</ele>
        <time>2019-02-12T13:02:44Z</time>
      </trkpt>
      <trkpt lat="47.90915" lon="-3.97794">
        <ele>1.11</ele>
        <time>2019-02-12T13:03:00Z</time>
      </trkpt>
      <trkpt lat="47.90902" lon="-3.97815">
        <ele>2.01</ele>
        <time>2019-02-12T13:03:14Z</time>
      </trkpt>
      <trkpt lat="47.90895" lon="-3.9784">
        <ele>2.1</ele>
        <time>2019-02-12T13:03:43Z</time>
      </trkpt>
      <trkpt lat="47.9089" lon="-3.97867">
        <ele>5.17</ele>
        <time>2019-02-12T13:04:10Z</time>
      </trkpt>
      <trkpt lat="47.90874" lon="-3.9788">
        <ele>7.89</ele>
        <time>2019-02-12T13:04:26Z</time>
      </trkpt>
      <trkpt lat="47.90856" lon="-3.97888">
        <ele>8.1</ele>
        <time>2019-02-12T13:04:44Z</time>
      </trkpt>
      <trkpt lat="47.90839" lon="-3.97898">
        <ele>6.1</ele>
        <time>2019-02-12T13:05:03Z</time>
      </trkpt>
      <trkpt lat="47.90823" lon="-3.97909">
        <ele>10.08</ele>
        <time>2019-02-12T13:05:19Z</time>
      </trkpt>
      <trkpt lat="47.90819" lon="-3.97937">
        <ele>13.81</ele>
        <time>2019-02-12T13:05:47Z</time>
      </trkpt>
      <trkpt lat="47.90823" lon="-3.97964">
        <ele>14.8</ele>
        <time>2019-02-12T13:06:13Z</time>
      </trkpt>
      <trkpt lat="47.90838" lon="-3.9798">
        <ele>18.01</ele>
        <time>2019-02-12T13:06:29Z</time>
      </trkpt>
      <trkpt lat="47.90855" lon="-3.97992">
        <ele>18.13</ele>
        <time>2019-02-12T13:06:56Z</time>
      </trkpt>
      <trkpt lat="47.90858" lon="-3.98019">
        <ele>17.1</ele>
        <time>2019-02-12T13:07:10Z</time>
      </trkpt>
      <trkpt lat="47.90849" lon="-3.98043">
        <ele>18.1</ele>
        <time>2019-02-12T13:07:23Z</time>
      </trkpt>
      <trkpt lat="47.9084" lon="-3.98066">
        <ele>19.04</ele>
        <time>2019-02-12T13:07:39Z</time>
      </trkpt>
      <trkpt lat="47.90836" lon="-3.98092">
        <ele>22.03</ele>
        <time>2019-02-12T13:07:56Z</time>
      </trkpt>
      <trkpt lat="47.90839" lon="-3.9812">
        <ele>24.1</ele>
        <time>2019-02-12T13:08:12Z</time>
      </trkpt>
      <trkpt lat="47.90847" lon="-3.98145">
        <ele>25.1</ele>
        <time>2019-02-12T13:08:31Z</time>
      </trkpt>
      <trkpt lat="47.90865" lon="-3.98154">
        <ele>27.1</ele>
        <time>2019-02-12T13:08:47Z</time>
      </trkpt>
      <trkpt lat="47.90881" lon="-3.98165">
        <ele>27.87</ele>
        <time>2019-02-12T13:09:02Z</time>
      </trkpt>
      <trkpt lat="47.90897" lon="-3.98179">
        <ele>30.1</ele>
        <time>2019-02-12T13:09:20Z</time>
      </trkpt>
      <trkpt lat="47.90896" lon="-3.98208">
        <ele>32.1</ele>
        <time>2019-02-12T13:09:37Z</time>
      </trkpt>
      <trkpt lat="47.9089" lon="-3.98234">
        <ele>33.08</ele>
        <time>2019-02-12T13:09:54Z</time>
      </trkpt>
      <trkpt lat="47.90894" lon="-3.98261">
        <ele>33.1</ele>
        <time>2019-02-12T13:10:11Z</time>
      </trkpt>
      <trkpt lat="47.90904" lon="-3.98284">
        <ele>32.11</ele>
        <time>2019-02-12T13:10:27Z</time>
      </trkpt>
      <trkpt lat="47.90921" lon="-3.98295">
        <ele>33.18</ele>
        <time>2019-02-12T13:10:45Z</time>
      </trkpt>
      <trkpt lat="47.9094" lon="-3.98304">
        <ele>32.78</ele>
        <time>2019-02-12T13:11:04Z</time>
      </trkpt>
      <trkpt lat="47.90957" lon="-3.98314">
        <ele>32.1</ele>
        <time>2019-02-12T13:11:19Z</time>
      </trkpt>
      <trkpt lat="47.90974" lon="-3.98328">
        <ele>33.8</ele>
        <time>2019-02-12T13:11:33Z</time>
      </trkpt>
      <trkpt lat="47.9099" lon="-3.98343">
        <ele>34.5</ele>
        <time>2019-02-12T13:11:48Z</time>
      </trkpt>
      <trkpt lat="47.91008" lon="-3.98335">
        <ele>35.08</ele>
        <time>2019-02-12T13:12:09Z</time>
      </trkpt>
      <trkpt lat="47.91018" lon="-3.98312">
        <ele>33.19</ele>
        <time>2019-02-12T13:12:30Z</time>
      </trkpt>
      <trkpt lat="47.91019" lon="-3.98285">
        <ele>32.81</ele>
        <time>2019-02-12T13:12:44Z</time>
      </trkpt>
      <trkpt lat="47.91025" lon="-3.98258">
        <ele>33.11</ele>
        <time>2019-02-12T13:13:01Z</time>
      </trkpt>
      <trkpt lat="47.91023" lon="-3.98231">
        <ele>33.01</ele>
        <time>2019-02-12T13:13:22Z</time>
      </trkpt>
      <trkpt lat="47.91026" lon="-3.98205">
        <ele>32.33</ele>
        <time>2019-02-12T13:13:39Z</time>
      </trkpt>
      <trkpt lat="47.9103" lon="-3.98177">
        <ele>29.13</ele>
        <time>2019-02-12T13:13:57Z</time>
      </trkpt>
      <trkpt lat="47.91036" lon="-3.98151">
        <ele>28.1</ele>
        <time>2019-02-12T13:14:16Z</time>
      </trkpt>
      <trkpt lat="47.91054" lon="-3.98151">
        <ele>28.1</ele>
        <time>2019-02-12T13:14:36Z</time>
      </trkpt>
      <trkpt lat="47.91072" lon="-3.98161">
        <ele>28.08</ele>
        <time>2019-02-12T13:14:52Z</time>
      </trkpt>
      <trkpt lat="47.91089" lon="-3.9817">
        <ele>26.11</ele>
        <time>2019-02-12T13:15:08Z</time>
      </trkpt>
      <trkpt lat="47.91106" lon="-3.98179">
        <ele>26.38</ele>
        <time>2019-02-12T13:15:24Z</time>
      </trkpt>
      <trkpt lat="47.91122" lon="-3.98192">
        <ele>23.13</ele>
        <time>2019-02-12T13:15:48Z</time>
      </trkpt>
      <trkpt lat="47.91139" lon="-3.98204">
        <ele>20.19</ele>
        <time>2019-02-12T13:16:16Z</time>
      </trkpt>
      <trkpt lat="47.9114" lon="-3.98231">
        <ele>20.2</ele>
        <time>2019-02-12T13:16:37Z</time>
      </trkpt>
      <trkpt lat="47.91138" lon="-3.98259">
        <ele>22.08</ele>
        <time>2019-02-12T13:16:58Z</time>
      </trkpt>
      <trkpt lat="47.91135" lon="-3.98287">
        <ele>22.1</ele>
        <time>2019-02-12T13:17:17Z</time>
      </trkpt>
      <trkpt lat="47.91134" lon="-3.98315">
        <ele>22.1</ele>
        <time>2019-02-12T13:17:36Z</time>
      </trkpt>
      <trkpt lat="47.91135" lon="-3.98342">
        <ele>24.01</ele>
        <time>2019-02-12T13:17:50Z</time>
      </trkpt>
      <trkpt lat="47.91133" lon="-3.9837">
        <ele>24.1</ele>
        <time>2019-02-12T13:18:10Z</time>
      </trkpt>
      <trkpt lat="47.91132" lon="-3.98397">
        <ele>25.32</ele>
        <time>2019-02-12T13:18:29Z</time>
      </trkpt>
      <trkpt lat="47.91139" lon="-3.98423">
        <ele>28.1</ele>
        <time>2019-02-12T13:18:51Z</time>
      </trkpt>
      <trkpt lat="47.91158" lon="-3.98425">
        <ele>26.17</ele>
        <time>2019-02-12T13:19:07Z</time>
      </trkpt>
      <trkpt lat="47.91176" lon="-3.98428">
        <ele>27.08</ele>
        <time>2019-02-12T13:19:24Z</time>
      </trkpt>
      <trkpt lat="47.91194" lon="-3.9843">
        <ele>28.13</ele>
        <time>2019-02-12T13:19:39Z</time>
      </trkpt>
      <trkpt lat="47.91213" lon="-3.98433">
        <ele>30.8</ele>
        <time>2019-02-12T13:19:57Z</time>
      </trkpt>
      <trkpt lat="47.9123" lon="-3.98438">
        <ele>34.1</ele>
        <time>2019-02-12T13:20:14Z</time>
      </trkpt>
      <trkpt lat="47.91248" lon="-3.98442">
        <ele>35.08</ele>
        <time>2019-02-12T13:20:29Z</time>
      </trkpt>
      <trkpt lat="47.91266" lon="-3.98449">
        <ele>37.01</ele>
        <time>2019-02-12T13:20:44Z</time>
      </trkpt>
      <trkpt lat="47.91283" lon="-3.98457">
        <ele>37.11</ele>
        <time>2019-02-12T13:21:02Z</time>
      </trkpt>
      <trkpt lat="47.91302" lon="-3.98461">
        <ele>42.1</ele>
        <time>2019-02-12T13:21:21Z</time>
      </trkpt>
      <trkpt lat="47.91317" lon="-3.98444">
        <ele>40.1</ele>
        <time>2019-02-12T13:21:35Z</time>
      </trkpt>
      <trkpt lat="47.91336" lon="-3.98436">
        <ele>41.8</ele>
        <time>2019-02-12T13:21:51Z</time>
      </trkpt>
      <trkpt lat="47.91355" lon="-3.98435">
        <ele>42.1</ele>
        <time>2019-02-12T13:22:08Z</time>
      </trkpt>
      <trkpt lat="47.91373" lon="-3.98433">
        <ele>41.11</ele>
        <time>2019-02-12T13:22:23Z</time>
      </trkpt>
      <trkpt lat="47.91391" lon="-3.9843">
        <ele>40.1</ele>
        <time>2019-02-12T13:22:39Z</time>
      </trkpt>
      <trkpt lat="47.9141" lon="-3.98429">
        <ele>40.1</ele>
        <time>2019-02-12T13:22:55Z</time>
      </trkpt>
      <trkpt lat="47.91427" lon="-3.98436">
        <ele>42.1</ele>
        <time>2019-02-12T13:23:12Z</time>
      </trkpt>
      <trkpt lat="47.91445" lon="-3.98449">
        <ele>44.13</ele>
        <time>2019-02-12T13:23:28Z</time>
      </trkpt>
      <trkpt lat="47.91461" lon="-3.98462">
        <ele>42.12</ele>
        <time>2019-02-12T13:23:45Z</time>
      </trkpt>
      <trkpt lat="47.91478" lon="-3.98474">
        <ele>40.89</ele>
        <time>2019-02-12T13:24:00Z</time>
      </trkpt>
      <trkpt lat="47.91494" lon="-3.98488">
        <ele>40.11</ele>
        <time>2019-02-12T13:24:17Z</time>
      </trkpt>
      <trkpt lat="47.91511" lon="-3.98497">
        <ele>40.08</ele>
        <time>2019-02-12T13:24:33Z</time>
      </trkpt>
      <trkpt lat="47.9153" lon="-3.98501">
        <ele>39.1</ele>
        <time>2019-02-12T13:24:50Z</time>
      </trkpt>
      <trkpt lat="47.91539" lon="-3.98477">
        <ele>38.41</ele>
        <time>2019-02-12T13:25:08Z</time>
      </trkpt>
      <trkpt lat="47.91541" lon="-3.98451">
        <ele>35.11</ele>
        <time>2019-02-12T13:25:25Z</time>
      </trkpt>
      <trkpt lat="47.91534" lon="-3.98425">
        <ele>36.1</ele>
        <time>2019-02-12T13:25:40Z</time>
      </trkpt>
      <trkpt lat="47.91523" lon="-3.98404">
        <ele>35.1</ele>
        <time>2019-02-12T13:25:58Z</time>
      </trkpt>
      <trkpt lat="47.91512" lon="-3.98378">
        <ele>38.1</ele>
        <time>2019-02-12T13:26:20Z</time>
      </trkpt>
      <trkpt lat="47.91499" lon="-3.98358">
        <ele>38.11</ele>
        <time>2019-02-12T13:26:38Z</time>
      </trkpt>
      <trkpt lat="47.91485" lon="-3.98339">
        <ele>36.11</ele>
        <time>2019-02-12T13:26:53Z</time>
      </trkpt>
      <trkpt lat="47.91472" lon="-3.9832">
        <ele>32.11</ele>
        <time>2019-02-12T13:27:12Z</time>
      </trkpt>
      <trkpt lat="47.91469" lon="-3.98293">
        <ele>30.34</ele>
        <time>2019-02-12T13:28:03Z</time>
      </trkpt>
      <trkpt lat="47.91465" lon="-3.98265">
        <ele>26.38</ele>
        <time>2019-02-12T13:28:20Z</time>
      </trkpt>
      <trkpt lat="47.91465" lon="-3.98238">
        <ele>26.08</ele>
        <time>2019-02-12T13:28:37Z</time>
      </trkpt>
      <trkpt lat="47.91459" lon="-3.98212">
        <ele>23.41</ele>
        <time>2019-02-12T13:28:53Z</time>
      </trkpt>
      <trkpt lat="47.91454" lon="-3.98185">
        <ele>22.29</ele>
        <time>2019-02-12T13:29:14Z</time>
      </trkpt>
      <trkpt lat="47.91451" lon="-3.98158">
        <ele>19.81</ele>
        <time>2019-02-12T13:29:35Z</time>
      </trkpt>
      <trkpt lat="47.91456" lon="-3.98131">
        <ele>20.47</ele>
        <time>2019-02-12T13:30:00Z</time>
      </trkpt>
      <trkpt lat="47.91475" lon="-3.98126">
        <ele>20.1</ele>
        <time>2019-02-12T13:30:15Z</time>
      </trkpt>
      <trkpt lat="47.91493" lon="-3.98124">
        <ele>20.1</ele>
        <time>2019-02-12T13:30:31Z</time>
      </trkpt>
      <trkpt lat="47.91511" lon="-3.98125">
        <ele>22.1</ele>
        <time>2019-02-12T13:30:47Z</time>
      </trkpt>
      <trkpt lat="47.9153" lon="-3.98128">
        <ele>20.19</ele>
        <time>2019-02-12T13:31:04Z</time>
      </trkpt>
      <trkpt lat="47.91548" lon="-3.98124">
        <ele>20.34</ele>
        <time>2019-02-12T13:31:24Z</time>
      </trkpt>
      <trkpt lat="47.91565" lon="-3.98115">
        <ele>18.08</ele>
        <time>2019-02-12T13:31:40Z</time>
      </trkpt>
      <trkpt lat="47.91582" lon="-3.98105">
        <ele>24.07</ele>
        <time>2019-02-12T13:31:55Z</time>
      </trkpt>
      <trkpt lat="47.91598" lon="-3.98092">
        <ele>22.1</ele>
        <time>2019-02-12T13:32:12Z</time>
      </trkpt>
      <trkpt lat="47.91614" lon="-3.98077">
        <ele>19.81</ele>
        <time>2019-02-12T13:32:30Z</time>
      </trkpt>
      <trkpt lat="47.91629" lon="-3.98061">
        <ele>20.2</ele>
        <time>2019-02-12T13:32:48Z</time>
      </trkpt>
      <trkpt lat="47.91645" lon="-3.98049">
        <ele>20.01</ele>
        <time>2019-02-12T13:33:04Z</time>
      </trkpt>
      <trkpt lat="47.91661" lon="-3.98035">
        <ele>18.19</ele>
        <time>2019-02-12T13:33:19Z</time>
      </trkpt>
      <trkpt lat="47.91679" lon="-3.98024">
        <ele>20.4</ele>
        <time>2019-02-12T13:33:36Z</time>
      </trkpt>
      <trkpt lat="47.91698" lon="-3.9802">
        <ele>21.31</ele>
        <time>2019-02-12T13:33:54Z</time>
      </trkpt>
      <trkpt lat="47.91716" lon="-3.98025">
        <ele>21.8</ele>
        <time>2019-02-12T13:34:14Z</time>
      </trkpt>
      <trkpt lat="47.91734" lon="-3.9803">
        <ele>25.1</ele>
        <time>2019-02-12T13:34:28Z</time>
      </trkpt>
      <trkpt lat="47.91753" lon="-3.98036">
        <ele>25.1</ele>
        <time>2019-02-12T13:34:48Z</time>
      </trkpt>
      <trkpt lat="47.91769" lon="-3.98047">
        <ele>27.12</ele>
        <time>2019-02-12T13:35:04Z</time>
      </trkpt>
      <trkpt lat="47.91781" lon="-3.98067">
        <ele>31.8</ele>
        <time>2019-02-12T13:35:21Z</time>
      </trkpt>
      <trkpt lat="47.91793" lon="-3.98087">
        <ele>33.1</ele>
        <time>2019-02-12T13:35:36Z</time>
      </trkpt>
      <trkpt lat="47.91811" lon="-3.98099">
        <ele>37.09</ele>
        <time>2019-02-12T13:35:54Z</time>
      </trkpt>
      <trkpt lat="47.91829" lon="-3.98105">
        <ele>36.19</ele>
        <time>2019-02-12T13:36:12Z</time>
      </trkpt>
      <trkpt lat="47.91847" lon="-3.98105">
        <ele>33.1</ele>
        <time>2019-02-12T13:36:29Z</time>
      </trkpt>
      <trkpt lat="47.91865" lon="-3.98112">
        <ele>30.5</ele>
        <time>2019-02-12T13:36:42Z</time>
      </trkpt>
      <trkpt lat="47.91884" lon="-3.98111">
        <ele>31.79</ele>
        <time>2019-02-12T13:36:56Z</time>
      </trkpt>
      <trkpt lat="47.91902" lon="-3.98114">
        <ele>29.13</ele>
        <time>2019-02-12T13:37:13Z</time>
      </trkpt>
      <trkpt lat="47.91919" lon="-3.98128">
        <ele>31.1</ele>
        <time>2019-02-12T13:37:30Z</time>
      </trkpt>
      <trkpt lat="47.91933" lon="-3.98144">
        <ele>34.01</ele>
        <time>2019-02-12T13:37:49Z</time>
      </trkpt>
      <trkpt lat="47.91946" lon="-3.98165">
        <ele>36.05</ele>
        <time>2019-02-12T13:38:06Z</time>
      </trkpt>
      <trkpt lat="47.91958" lon="-3.98188">
        <ele>30.14</ele>
        <time>2019-02-12T13:38:23Z</time>
      </trkpt>
      <trkpt lat="47.91963" lon="-3.98213">
        <ele>27.1</ele>
        <time>2019-02-12T13:38:49Z</time>
      </trkpt>
      <trkpt lat="47.91978" lon="-3.98197">
        <ele>31.1</ele>
        <time>2019-02-12T13:39:53Z</time>
      </trkpt>
      <trkpt lat="47.91985" lon="-3.98172">
        <ele>34.11</ele>
        <time>2019-02-12T13:40:09Z</time>
      </trkpt>
      <trkpt lat="47.92003" lon="-3.98158">
        <ele>29.41</ele>
        <time>2019-02-12T13:40:27Z</time>
      </trkpt>
      <trkpt lat="47.9202" lon="-3.98148">
        <ele>31.13</ele>
        <time>2019-02-12T13:40:53Z</time>
      </trkpt>
      <trkpt lat="47.92038" lon="-3.98146">
        <ele>32.8</ele>
        <time>2019-02-12T13:41:11Z</time>
      </trkpt>
      <trkpt lat="47.92056" lon="-3.98146">
        <ele>34.19</ele>
        <time>2019-02-12T13:41:33Z</time>
      </trkpt>
      <trkpt lat="47.92073" lon="-3.98153">
        <ele>37.78</ele>
        <time>2019-02-12T13:41:56Z</time>
      </trkpt>
      <trkpt lat="47.92092" lon="-3.98145">
        <ele>37.8</ele>
        <time>2019-02-12T13:42:24Z</time>
      </trkpt>
      <trkpt lat="47.9211" lon="-3.9815">
        <ele>41.4</ele>
        <time>2019-02-12T13:42:45Z</time>
      </trkpt>
      <trkpt lat="47.92128" lon="-3.98148">
        <ele>41.19</ele>
        <time>2019-02-12T13:43:02Z</time>
      </trkpt>
      <trkpt lat="47.92146" lon="-3.98147">
        <ele>42.41</ele>
        <time>2019-02-12T13:43:18Z</time>
      </trkpt>
      <trkpt lat="47.92164" lon="-3.98142">
        <ele>42.4</ele>
        <time>2019-02-12T13:43:34Z</time>
      </trkpt>
      <trkpt lat="47.92183" lon="-3.98141">
        <ele>41.1</ele>
        <time>2019-02-12T13:43:55Z</time>
      </trkpt>
      <trkpt lat="47.92202" lon="-3.98143">
        <ele>42.1</ele>
        <time>2019-02-12T13:44:11Z</time>
      </trkpt>
      <trkpt lat="47.9222" lon="-3.98147">
        <ele>37.43</ele>
        <time>2019-02-12T13:44:32Z</time>
      </trkpt>
      <trkpt lat="47.92235" lon="-3.9816">
        <ele>42.11</ele>
        <time>2019-02-12T13:44:51Z</time>
      </trkpt>
      <trkpt lat="47.92253" lon="-3.98162">
        <ele>41.4</ele>
        <time>2019-02-12T13:45:08Z</time>
      </trkpt>
      <trkpt lat="47.92271" lon="-3.98169">
        <ele>44.1</ele>
        <time>2019-02-12T13:45:24Z</time>
      </trkpt>
      <trkpt lat="47.92287" lon="-3.98186">
        <ele>48.01</ele>
        <time>2019-02-12T13:45:54Z</time>
      </trkpt>
      <trkpt lat="47.92306" lon="-3.98187">
        <ele>48.1</ele>
        <time>2019-02-12T13:46:11Z</time>
      </trkpt>
      <trkpt lat="47.92324" lon="-3.98179">
        <ele>47.13</ele>
        <time>2019-02-12T13:46:25Z</time>
      </trkpt>
      <trkpt lat="47.92342" lon="-3.98181">
        <ele>45.21</ele>
        <time>2019-02-12T13:46:42Z</time>
      </trkpt>
      <trkpt lat="47.92359" lon="-3.98193">
        <ele>45.9</ele>
        <time>2019-02-12T13:46:56Z</time>
      </trkpt>
      <trkpt lat="47.92376" lon="-3.98202">
        <ele>47.1</ele>
        <time>2019-02-12T13:47:12Z</time>
      </trkpt>
      <trkpt lat="47.92393" lon="-3.98213">
        <ele>51.87</ele>
        <time>2019-02-12T13:47:27Z</time>
      </trkpt>
      <trkpt lat="47.92411" lon="-3.98215">
        <ele>52.1</ele>
        <time>2019-02-12T13:47:43Z</time>
      </trkpt>
      <trkpt lat="47.92392" lon="-3.98215">
        <ele>53.08</ele>
        <time>2019-02-12T13:48:22Z</time>
      </trkpt>
      <trkpt lat="47.92374" lon="-3.98217">
        <ele>48.13</ele>
        <time>2019-02-12T13:48:44Z</time>
      </trkpt>
      <trkpt lat="47.92356" lon="-3.98217">
        <ele>49.11</ele>
        <time>2019-02-12T13:49:06Z</time>
      </trkpt>
      <trkpt lat="47.92338" lon="-3.98217">
        <ele>50.4</ele>
        <time>2019-02-12T13:49:31Z</time>
      </trkpt>
      <trkpt lat="47.92319" lon="-3.98215">
        <ele>50.31</ele>
        <time>2019-02-12T13:49:59Z</time>
      </trkpt>
      <trkpt lat="47.92301" lon="-3.98209">
        <ele>52.19</ele>
        <time>2019-02-12T13:50:17Z</time>
      </trkpt>
      <trkpt lat="47.92288" lon="-3.98189">
        <ele>48.7</ele>
        <time>2019-02-12T13:51:58Z</time>
      </trkpt>
      <trkpt lat="47.92279" lon="-3.98166">
        <ele>39.09</ele>
        <time>2019-02-12T13:52:34Z</time>
      </trkpt>
      <trkpt lat="47.92261" lon="-3.98158">
        <ele>38.19</ele>
        <time>2019-02-12T13:52:52Z</time>
      </trkpt>
      <trkpt lat="47.92243" lon="-3.98154">
        <ele>38.1</ele>
        <time>2019-02-12T13:53:06Z</time>
      </trkpt>
      <trkpt lat="47.92225" lon="-3.9815">
        <ele>37.1</ele>
        <time>2019-02-12T13:53:29Z</time>
      </trkpt>
      <trkpt lat="47.92207" lon="-3.98144">
        <ele>37.1</ele>
        <time>2019-02-12T13:53:51Z</time>
      </trkpt>
      <trkpt lat="47.92188" lon="-3.98145">
        <ele>38.1</ele>
        <time>2019-02-12T13:54:11Z</time>
      </trkpt>
      <trkpt lat="47.9217" lon="-3.98142">
        <ele>39.11</ele>
        <time>2019-02-12T13:54:28Z</time>
      </trkpt>
      <trkpt lat="47.92152" lon="-3.98148">
        <ele>44.1</ele>
        <time>2019-02-12T13:54:48Z</time>
      </trkpt>
      <trkpt lat="47.92133" lon="-3.98151">
        <ele>42.19</ele>
        <time>2019-02-12T13:55:06Z</time>
      </trkpt>
      <trkpt lat="47.92115" lon="-3.98144">
        <ele>43.08</ele>
        <time>2019-02-12T13:55:23Z</time>
      </trkpt>
      <trkpt lat="47.92097" lon="-3.98142">
        <ele>42.4</ele>
        <time>2019-02-12T13:55:42Z</time>
      </trkpt>
      <trkpt lat="47.92081" lon="-3.98154">
        <ele>40.13</ele>
        <time>2019-02-12T13:55:58Z</time>
      </trkpt>
      <trkpt lat="47.92063" lon="-3.98146">
        <ele>38.1</ele>
        <time>2019-02-12T13:56:25Z</time>
      </trkpt>
      <trkpt lat="47.92044" lon="-3.98143">
        <ele>36.11</ele>
        <time>2019-02-12T13:56:45Z</time>
      </trkpt>
      <trkpt lat="47.92026" lon="-3.98144">
        <ele>36.11</ele>
        <time>2019-02-12T13:57:10Z</time>
      </trkpt>
      <trkpt lat="47.92008" lon="-3.98149">
        <ele>35.8</ele>
        <time>2019-02-12T13:57:27Z</time>
      </trkpt>
      <trkpt lat="47.91992" lon="-3.98162">
        <ele>34.19</ele>
        <time>2019-02-12T13:57:44Z</time>
      </trkpt>
      <trkpt lat="47.91978" lon="-3.98181">
        <ele>37.4</ele>
        <time>2019-02-12T13:58:00Z</time>
      </trkpt>
      <trkpt lat="47.91975" lon="-3.98208">
        <ele>35.08</ele>
        <time>2019-02-12T13:58:14Z</time>
      </trkpt>
      <trkpt lat="47.91961" lon="-3.98191">
        <ele>26.1</ele>
        <time>2019-02-12T14:02:41Z</time>
      </trkpt>
      <trkpt lat="47.91971" lon="-3.98168">
        <ele>30.1</ele>
        <time>2019-02-12T14:04:07Z</time>
      </trkpt>
      <trkpt lat="47.91985" lon="-3.98149">
        <ele>29.8</ele>
        <time>2019-02-12T14:04:29Z</time>
      </trkpt>
      <trkpt lat="47.91995" lon="-3.98126">
        <ele>23.34</ele>
        <time>2019-02-12T14:04:58Z</time>
      </trkpt>
      <trkpt lat="47.91977" lon="-3.98117">
        <ele>26.08</ele>
        <time>2019-02-12T14:05:20Z</time>
      </trkpt>
      <trkpt lat="47.91965" lon="-3.98097">
        <ele>26.19</ele>
        <time>2019-02-12T14:05:34Z</time>
      </trkpt>
      <trkpt lat="47.91948" lon="-3.98086">
        <ele>25.19</ele>
        <time>2019-02-12T14:05:50Z</time>
      </trkpt>
      <trkpt lat="47.91932" lon="-3.98074">
        <ele>27.1</ele>
        <time>2019-02-12T14:06:06Z</time>
      </trkpt>
      <trkpt lat="47.91918" lon="-3.98056">
        <ele>33.1</ele>
        <time>2019-02-12T14:06:23Z</time>
      </trkpt>
      <trkpt lat="47.91907" lon="-3.98034">
        <ele>36.82</ele>
        <time>2019-02-12T14:06:37Z</time>
      </trkpt>
      <trkpt lat="47.91894" lon="-3.98013">
        <ele>36.11</ele>
        <time>2019-02-12T14:06:57Z</time>
      </trkpt>
      <trkpt lat="47.91883" lon="-3.9799">
        <ele>40.1</ele>
        <time>2019-02-12T14:07:18Z</time>
      </trkpt>
      <trkpt lat="47.91874" lon="-3.97965">
        <ele>41.5</ele>
        <time>2019-02-12T14:07:35Z</time>
      </trkpt>
      <trkpt lat="47.91865" lon="-3.9794">
        <ele>42.89</ele>
        <time>2019-02-12T14:07:50Z</time>
      </trkpt>
      <trkpt lat="47.91857" lon="-3.97914">
        <ele>41.1</ele>
        <time>2019-02-12T14:08:07Z</time>
      </trkpt>
      <trkpt lat="47.91839" lon="-3.97904">
        <ele>40.13</ele>
        <time>2019-02-12T14:08:23Z</time>
      </trkpt>
      <trkpt lat="47.91822" lon="-3.97893">
        <ele>38.1</ele>
        <time>2019-02-12T14:08:39Z</time>
      </trkpt>
      <trkpt lat="47.91803" lon="-3.97887">
        <ele>37.1</ele>
        <time>2019-02-12T14:08:57Z</time>
      </trkpt>
      <trkpt lat="47.91785" lon="-3.9788">
        <ele>35.1</ele>
        <time>2019-02-12T14:09:13Z</time>
      </trkpt>
      <trkpt lat="47.91768" lon="-3.97869">
        <ele>31.41</ele>
        <time>2019-02-12T14:09:32Z</time>
      </trkpt>
      <trkpt lat="47.9175" lon="-3.97866">
        <ele>31.08</ele>
        <time>2019-02-12T14:09:51Z</time>
      </trkpt>
      <trkpt lat="47.91731" lon="-3.9786">
        <ele>30.49</ele>
        <time>2019-02-12T14:10:10Z</time>
      </trkpt>
      <trkpt lat="47.91714" lon="-3.97852">
        <ele>29.83</ele>
        <time>2019-02-12T14:10:48Z</time>
      </trkpt>
      <trkpt lat="47.91696" lon="-3.97847">
        <ele>26.13</ele>
        <time>2019-02-12T14:11:10Z</time>
      </trkpt>
      <trkpt lat="47.91677" lon="-3.97845">
        <ele>27.1</ele>
        <time>2019-02-12T14:11:32Z</time>
      </trkpt>
      <trkpt lat="47.9166" lon="-3.97838">
        <ele>30.1</ele>
        <time>2019-02-12T14:11:50Z</time>
      </trkpt>
      <trkpt lat="47.91642" lon="-3.97834">
        <ele>31.31</ele>
        <time>2019-02-12T14:12:07Z</time>
      </trkpt>
      <trkpt lat="47.91623" lon="-3.97828">
        <ele>31.1</ele>
        <time>2019-02-12T14:12:23Z</time>
      </trkpt>
      <trkpt lat="47.91605" lon="-3.97822">
        <ele>33.01</ele>
        <time>2019-02-12T14:12:40Z</time>
      </trkpt>
      <trkpt lat="47.91591" lon="-3.9784">
        <ele>31.13</ele>
        <time>2019-02-12T14:12:58Z</time>
      </trkpt>
      <trkpt lat="47.91572" lon="-3.97845">
        <ele>31.1</ele>
        <time>2019-02-12T14:13:14Z</time>
      </trkpt>
      <trkpt lat="47.91554" lon="-3.97844">
        <ele>29.19</ele>
        <time>2019-02-12T14:13:31Z</time>
      </trkpt>
      <trkpt lat="47.91548" lon="-3.97818">
        <ele>27.1</ele>
        <time>2019-02-12T14:13:45Z</time>
      </trkpt>
      <trkpt lat="47.91541" lon="-3.97791">
        <ele>29.02</ele>
        <time>2019-02-12T14:14:04Z</time>
      </trkpt>
      <trkpt lat="47.91522" lon="-3.97789">
        <ele>29.08</ele>
        <time>2019-02-12T14:14:22Z</time>
      </trkpt>
      <trkpt lat="47.91503" lon="-3.97792">
        <ele>25.2</ele>
        <time>2019-02-12T14:14:35Z</time>
      </trkpt>
      <trkpt lat="47.91484" lon="-3.97791">
        <ele>24.4</ele>
        <time>2019-02-12T14:14:49Z</time>
      </trkpt>
      <trkpt lat="47.91466" lon="-3.97793">
        <ele>23.11</ele>
        <time>2019-02-12T14:15:04Z</time>
      </trkpt>
      <trkpt lat="47.91447" lon="-3.97792">
        <ele>24.37</ele>
        <time>2019-02-12T14:15:18Z</time>
      </trkpt>
      <trkpt lat="47.91429" lon="-3.97797">
        <ele>25.1</ele>
        <time>2019-02-12T14:15:33Z</time>
      </trkpt>
      <trkpt lat="47.91411" lon="-3.97798">
        <ele>23.32</ele>
        <time>2019-02-12T14:15:47Z</time>
      </trkpt>
      <trkpt lat="47.91393" lon="-3.978">
        <ele>22.1</ele>
        <time>2019-02-12T14:16:01Z</time>
      </trkpt>
      <trkpt lat="47.91374" lon="-3.97802">
        <ele>22.1</ele>
        <time>2019-02-12T14:16:18Z</time>
      </trkpt>
      <trkpt lat="47.91356" lon="-3.978">
        <ele>21.19</ele>
        <time>2019-02-12T14:16:34Z</time>
      </trkpt>
      <trkpt lat="47.91337" lon="-3.97795">
        <ele>22.1</ele>
        <time>2019-02-12T14:16:52Z</time>
      </trkpt>
      <trkpt lat="47.91318" lon="-3.97796">
        <ele>23.31</ele>
        <time>2019-02-12T14:17:10Z</time>
      </trkpt>
      <trkpt lat="47.913" lon="-3.97796">
        <ele>22.1</ele>
        <time>2019-02-12T14:17:28Z</time>
      </trkpt>
      <trkpt lat="47.91282" lon="-3.978">
        <ele>23.12</ele>
        <time>2019-02-12T14:17:45Z</time>
      </trkpt>
      <trkpt lat="47.91263" lon="-3.97799">
        <ele>22.41</ele>
        <time>2019-02-12T14:18:03Z</time>
      </trkpt>
      <trkpt lat="47.91245" lon="-3.97801">
        <ele>22.1</ele>
        <time>2019-02-12T14:18:19Z</time>
      </trkpt>
      <trkpt lat="47.91226" lon="-3.97804">
        <ele>22.1</ele>
        <time>2019-02-12T14:18:35Z</time>
      </trkpt>
      <trkpt lat="47.91208" lon="-3.97805">
        <ele>19.9</ele>
        <time>2019-02-12T14:18:53Z</time>
      </trkpt>
      <trkpt lat="47.9119" lon="-3.9781">
        <ele>16.2</ele>
        <time>2019-02-12T14:19:09Z</time>
      </trkpt>
      <trkpt lat="47.91171" lon="-3.97817">
        <ele>14.1</ele>
        <time>2019-02-12T14:19:27Z</time>
      </trkpt>
      <trkpt lat="47.91153" lon="-3.9782">
        <ele>14.1</ele>
        <time>2019-02-12T14:19:43Z</time>
      </trkpt>
      <trkpt lat="47.91134" lon="-3.97823">
        <ele>11.11</ele>
        <time>2019-02-12T14:20:00Z</time>
      </trkpt>
      <trkpt lat="47.91117" lon="-3.97828">
        <ele>10.4</ele>
        <time>2019-02-12T14:20:15Z</time>
      </trkpt>
      <trkpt lat="47.91099" lon="-3.97831">
        <ele>7.22</ele>
        <time>2019-02-12T14:20:35Z</time>
      </trkpt>
      <trkpt lat="47.9108" lon="-3.97835">
        <ele>4.11</ele>
        <time>2019-02-12T14:20:53Z</time>
      </trkpt>
      <trkpt lat="47.91071" lon="-3.9781">
        <ele>2.1</ele>
        <time>2019-02-12T14:21:15Z</time>
      </trkpt>
      <trkpt lat="47.91059" lon="-3.9779">
        <ele>3.1</ele>
        <time>2019-02-12T14:21:28Z</time>
      </trkpt>
      <trkpt lat="47.91044" lon="-3.97771">
        <ele>2.8</ele>
        <time>2019-02-12T14:21:43Z</time>
      </trkpt>
      <trkpt lat="47.9103" lon="-3.97754">
        <ele>6.1</ele>
        <time>2019-02-12T14:21:58Z</time>
      </trkpt>
      <trkpt lat="47.91015" lon="-3.9774">
        <ele>9.38</ele>
        <time>2019-02-12T14:22:17Z</time>
      </trkpt>
      <trkpt lat="47.90998" lon="-3.97752">
        <ele>7.01</ele>
        <time>2019-02-12T14:22:38Z</time>
      </trkpt>
      <trkpt lat="47.9098" lon="-3.97746">
        <ele>1.11</ele>
        <time>2019-02-12T14:22:58Z</time>
      </trkpt>
      <trkpt lat="47.90971" lon="-3.97722">
        <ele>4.1</ele>
        <time>2019-02-12T14:23:44Z</time>
      </trkpt>
      <trkpt lat="47.90954" lon="-3.97714">
        <ele>5.8</ele>
        <time>2019-02-12T14:24:03Z</time>
      </trkpt>
      <trkpt lat="47.90939" lon="-3.97697">
        <ele>6.11</ele>
        <time>2019-02-12T14:24:23Z</time>
      </trkpt>
      <trkpt lat="47.90921" lon="-3.97699">
        <ele>1.41</ele>
        <time>2019-02-12T14:24:42Z</time>
      </trkpt>
      <trkpt lat="47.90902" lon="-3.97698">
        <ele>3.19</ele>
        <time>2019-02-12T14:24:59Z</time>
      </trkpt>
      <trkpt lat="47.90883" lon="-3.97694">
        <ele>2.79</ele>
        <time>2019-02-12T14:25:17Z</time>
      </trkpt>
      <trkpt lat="47.90865" lon="-3.97691">
        <ele>8.03</ele>
        <time>2019-02-12T14:25:34Z</time>
      </trkpt>
      <trkpt lat="47.90846" lon="-3.97689">
        <ele>7.81</ele>
        <time>2019-02-12T14:25:49Z</time>
      </trkpt>
      <trkpt lat="47.90827" lon="-3.97684">
        <ele>8.81</ele>
        <time>2019-02-12T14:26:08Z</time>
      </trkpt>
      <trkpt lat="47.90809" lon="-3.97676">
        <ele>7.02</ele>
        <time>2019-02-12T14:26:22Z</time>
      </trkpt>
      <trkpt lat="47.90791" lon="-3.97674">
        <ele>6.04</ele>
        <time>2019-02-12T14:26:39Z</time>
      </trkpt>
      <trkpt lat="47.90772" lon="-3.97675">
        <ele>7.83</ele>
        <time>2019-02-12T14:26:55Z</time>
      </trkpt>
      <trkpt lat="47.90754" lon="-3.97678">
        <ele>9.02</ele>
        <time>2019-02-12T14:27:11Z</time>
      </trkpt>
      <trkpt lat="47.90736" lon="-3.97685">
        <ele>9.04</ele>
        <time>2019-02-12T14:27:28Z</time>
      </trkpt>
      <trkpt lat="47.90719" lon="-3.97693">
        <ele>8.5</ele>
        <time>2019-02-12T14:27:45Z</time>
      </trkpt>
      <trkpt lat="47.90701" lon="-3.97704">
        <ele>4.93</ele>
        <time>2019-02-12T14:28:01Z</time>
      </trkpt>
      <trkpt lat="47.90683" lon="-3.97709">
        <ele>6.81</ele>
        <time>2019-02-12T14:28:17Z</time>
      </trkpt>
      <trkpt lat="47.90665" lon="-3.97712">
        <ele>4.2</ele>
        <time>2019-02-12T14:28:32Z</time>
      </trkpt>
      <trkpt lat="47.90646" lon="-3.97716">
        <ele>4.09</ele>
        <time>2019-02-12T14:28:48Z</time>
      </trkpt>
      <trkpt lat="47.90628" lon="-3.97715">
        <ele>3.1</ele>
        <time>2019-02-12T14:29:03Z</time>
      </trkpt>
      <trkpt lat="47.90609" lon="-3.97715">
        <ele>1.33</ele>
        <time>2019-02-12T14:29:20Z</time>
      </trkpt>
      <trkpt lat="47.90592" lon="-3.97702">
        <ele>0.11</ele>
        <time>2019-02-12T14:29:36Z</time>
      </trkpt>
      <trkpt lat="47.90575" lon="-3.97696">
        <ele>-1.81</ele>
        <time>2019-02-12T14:29:54Z</time>
      </trkpt>
      <trkpt lat="47.90556" lon="-3.97701">
        <ele>-1.92</ele>
        <time>2019-02-12T14:30:12Z</time>
      </trkpt>
      <trkpt lat="47.90539" lon="-3.97714">
        <ele>0.4</ele>
        <time>2019-02-12T14:30:29Z</time>
      </trkpt>
      <trkpt lat="47.9052" lon="-3.9771">
        <ele>1.11</ele>
        <time>2019-02-12T14:30:46Z</time>
      </trkpt>
      <trkpt lat="47.90504" lon="-3.97697">
        <ele>-0.86</ele>
        <time>2019-02-12T14:31:05Z</time>
      </trkpt>
      <trkpt lat="47.90486" lon="-3.97701">
        <ele>0.01</ele>
        <time>2019-02-12T14:31:23Z</time>
      </trkpt>
      <trkpt lat="47.90468" lon="-3.97694">
        <ele>2.1</ele>
        <time>2019-02-12T14:31:41Z</time>
      </trkpt>
      <trkpt lat="47.90453" lon="-3.97677">
        <ele>2.04</ele>
        <time>2019-02-12T14:31:55Z</time>
      </trkpt>
      <trkpt lat="47.90436" lon="-3.97669">
        <ele>2.4</ele>
        <time>2019-02-12T14:32:14Z</time>
      </trkpt>
      <trkpt lat="47.9042" lon="-3.97656">
        <ele>1.8</ele>
        <time>2019-02-12T14:32:31Z</time>
      </trkpt>
      <trkpt lat="47.90404" lon="-3.97641">
        <ele>0.19</ele>
        <time>2019-02-12T14:32:46Z</time>
      </trkpt>
      <trkpt lat="47.90388" lon="-3.97629">
        <ele>0.1</ele>
        <time>2019-02-12T14:33:01Z</time>
      </trkpt>
      <trkpt lat="47.90369" lon="-3.97624">
        <ele>-0.2</ele>
        <time>2019-02-12T14:33:19Z</time>
      </trkpt>
      <trkpt lat="47.90352" lon="-3.97615">
        <ele>1.1</ele>
        <time>2019-02-12T14:33:33Z</time>
      </trkpt>
      <trkpt lat="47.90335" lon="-3.97604">
        <ele>0.11</ele>
        <time>2019-02-12T14:33:52Z</time>
      </trkpt>
      <trkpt lat="47.90317" lon="-3.97591">
        <ele>-0.86</ele>
        <time>2019-02-12T14:34:08Z</time>
      </trkpt>
      <trkpt lat="47.903" lon="-3.97582">
        <ele>1.1</ele>
        <time>2019-02-12T14:34:23Z</time>
      </trkpt>
      <trkpt lat="47.90283" lon="-3.97572">
        <ele>0.81</ele>
        <time>2019-02-12T14:34:40Z</time>
      </trkpt>
      <trkpt lat="47.90264" lon="-3.9757">
        <ele>0.1</ele>
        <time>2019-02-12T14:34:56Z</time>
      </trkpt>
      <trkpt lat="47.90246" lon="-3.97564">
        <ele>1.1</ele>
        <time>2019-02-12T14:35:13Z</time>
      </trkpt>
      <trkpt lat="47.90228" lon="-3.97562">
        <ele>2.8</ele>
        <time>2019-02-12T14:35:28Z</time>
      </trkpt>
      <trkpt lat="47.9021" lon="-3.97558">
        <ele>2.01</ele>
        <time>2019-02-12T14:35:43Z</time>
      </trkpt>
      <trkpt lat="47.90191" lon="-3.97558">
        <ele>2.1</ele>
        <time>2019-02-12T14:36:00Z</time>
      </trkpt>
      <trkpt lat="47.90172" lon="-3.97568">
        <ele>2.1</ele>
        <time>2019-02-12T14:36:21Z</time>
      </trkpt>
      <trkpt lat="47.90154" lon="-3.97576">
        <ele>1.1</ele>
        <time>2019-02-12T14:36:36Z</time>
      </trkpt>
      <trkpt lat="47.90141" lon="-3.97594">
        <ele>1.1</ele>
        <time>2019-02-12T14:36:53Z</time>
      </trkpt>
      <trkpt lat="47.90131" lon="-3.97618">
        <ele>2.1</ele>
        <time>2019-02-12T14:37:11Z</time>
      </trkpt>
      <trkpt lat="47.90122" lon="-3.97642">
        <ele>3.08</ele>
        <time>2019-02-12T14:37:26Z</time>
      </trkpt>
      <trkpt lat="47.90115" lon="-3.97668">
        <ele>3.1</ele>
        <time>2019-02-12T14:37:43Z</time>
      </trkpt>
      <trkpt lat="47.90112" lon="-3.97695">
        <ele>3.1</ele>
        <time>2019-02-12T14:37:58Z</time>
      </trkpt>
      <trkpt lat="47.90115" lon="-3.97722">
        <ele>4.1</ele>
        <time>2019-02-12T14:38:14Z</time>
      </trkpt>
      <trkpt lat="47.90119" lon="-3.97749">
        <ele>3.19</ele>
        <time>2019-02-12T14:38:30Z</time>
      </trkpt>
      <trkpt lat="47.90126" lon="-3.97776">
        <ele>3.1</ele>
        <time>2019-02-12T14:38:48Z</time>
      </trkpt>
      <trkpt lat="47.90137" lon="-3.97797">
        <ele>3.13</ele>
        <time>2019-02-12T14:39:06Z</time>
      </trkpt>
      <trkpt lat="47.90152" lon="-3.97812">
        <ele>3.01</ele>
        <time>2019-02-12T14:39:21Z</time>
      </trkpt>
      <trkpt lat="47.90166" lon="-3.9783">
        <ele>3.09</ele>
        <time>2019-02-12T14:39:37Z</time>
      </trkpt>
      <trkpt lat="47.90179" lon="-3.9785">
        <ele>2.8</ele>
        <time>2019-02-12T14:39:56Z</time>
      </trkpt>
      <trkpt lat="47.90191" lon="-3.97871">
        <ele>3.4</ele>
        <time>2019-02-12T14:40:12Z</time>
      </trkpt>
      <trkpt lat="47.90204" lon="-3.9789">
        <ele>3.1</ele>
        <time>2019-02-12T14:40:28Z</time>
      </trkpt>
      <trkpt lat="47.90213" lon="-3.97915">
        <ele>4.1</ele>
        <time>2019-02-12T14:40:45Z</time>
      </trkpt>
      <trkpt lat="47.90217" lon="-3.97942">
        <ele>3.19</ele>
        <time>2019-02-12T14:41:00Z</time>
      </trkpt>
      <trkpt lat="47.90199" lon="-3.97949">
        <ele>1.1</ele>
        <time>2019-02-12T14:41:18Z</time>
      </trkpt>
      <trkpt lat="47.90182" lon="-3.97956">
        <ele>1.8</ele>
        <time>2019-02-12T14:41:34Z</time>
      </trkpt>
      <trkpt lat="47.90167" lon="-3.97972">
        <ele>2.1</ele>
        <time>2019-02-12T14:41:49Z</time>
      </trkpt>
      <trkpt lat="47.90152" lon="-3.97989">
        <ele>1.1</ele>
        <time>2019-02-12T14:42:06Z</time>
      </trkpt>
      <trkpt lat="47.90136" lon="-3.98005">
        <ele>0.17</ele>
        <time>2019-02-12T14:42:22Z</time>
      </trkpt>
      <trkpt lat="47.90118" lon="-3.98012">
        <ele>0.8</ele>
        <time>2019-02-12T14:42:37Z</time>
      </trkpt>
      <trkpt lat="47.90099" lon="-3.98016">
        <ele>1.08</ele>
        <time>2019-02-12T14:42:54Z</time>
      </trkpt>
      <trkpt lat="47.90082" lon="-3.98026">
        <ele>0.41</ele>
        <time>2019-02-12T14:43:13Z</time>
      </trkpt>
      <trkpt lat="47.90068" lon="-3.98046">
        <ele>-0.81</ele>
        <time>2019-02-12T14:45:43Z</time>
      </trkpt>
      <trkpt lat="47.90054" lon="-3.98061">
        <ele>0.1</ele>
        <time>2019-02-12T14:45:57Z</time>
      </trkpt>
      <trkpt lat="47.90037" lon="-3.98072">
        <ele>0.1</ele>
        <time>2019-02-12T14:46:12Z</time>
      </trkpt>
      <trkpt lat="47.9002" lon="-3.98083">
        <ele>0.33</ele>
        <time>2019-02-12T14:46:28Z</time>
      </trkpt>
      <trkpt lat="47.90002" lon="-3.98088">
        <ele>1.1</ele>
        <time>2019-02-12T14:46:43Z</time>
      </trkpt>
      <trkpt lat="47.89984" lon="-3.98091">
        <ele>3.1</ele>
        <time>2019-02-12T14:46:58Z</time>
      </trkpt>
      <trkpt lat="47.89969" lon="-3.98107">
        <ele>2.11</ele>
        <time>2019-02-12T14:47:14Z</time>
      </trkpt>
      <trkpt lat="47.89957" lon="-3.98128">
        <ele>2.19</ele>
        <time>2019-02-12T14:47:30Z</time>
      </trkpt>
      <trkpt lat="47.89941" lon="-3.98144">
        <ele>2.19</ele>
        <time>2019-02-12T14:47:45Z</time>
      </trkpt>
      <trkpt lat="47.89925" lon="-3.98156">
        <ele>2.1</ele>
        <time>2019-02-12T14:48:00Z</time>
      </trkpt>
      <trkpt lat="47.89907" lon="-3.98163">
        <ele>1.89</ele>
        <time>2019-02-12T14:48:16Z</time>
      </trkpt>
      <trkpt lat="47.89891" lon="-3.98149">
        <ele>1.4</ele>
        <time>2019-02-12T14:49:18Z</time>
      </trkpt>
      <trkpt lat="47.89875" lon="-3.98136">
        <ele>2.01</ele>
        <time>2019-02-12T14:49:34Z</time>
      </trkpt>
      <trkpt lat="47.89858" lon="-3.98126">
        <ele>4.1</ele>
        <time>2019-02-12T14:49:54Z</time>
      </trkpt>
      <trkpt lat="47.8984" lon="-3.98119">
        <ele>5.1</ele>
        <time>2019-02-12T14:50:13Z</time>
      </trkpt>
      <trkpt lat="47.89822" lon="-3.98111">
        <ele>2.13</ele>
        <time>2019-02-12T14:50:29Z</time>
      </trkpt>
      <trkpt lat="47.89804" lon="-3.98114">
        <ele>0.13</ele>
        <time>2019-02-12T14:50:46Z</time>
      </trkpt>
      <trkpt lat="47.89788" lon="-3.9813">
        <ele>-1.6</ele>
        <time>2019-02-12T14:51:04Z</time>
      </trkpt>
      <trkpt lat="47.89773" lon="-3.98148">
        <ele>-0.81</ele>
        <time>2019-02-12T14:51:19Z</time>
      </trkpt>
      <trkpt lat="47.89757" lon="-3.98163">
        <ele>-1.9</ele>
        <time>2019-02-12T14:51:38Z</time>
      </trkpt>
      <trkpt lat="47.8974" lon="-3.98171">
        <ele>-3.6</ele>
        <time>2019-02-12T14:51:54Z</time>
      </trkpt>
      <trkpt lat="47.8972" lon="-3.98171">
        <ele>-1.2</ele>
        <time>2019-02-12T14:52:11Z</time>
      </trkpt>
      <trkpt lat="47.89701" lon="-3.9817">
        <ele>0.78</ele>
        <time>2019-02-12T14:52:25Z</time>
      </trkpt>
      <trkpt lat="47.89683" lon="-3.98167">
        <ele>0.11</ele>
        <time>2019-02-12T14:52:42Z</time>
      </trkpt>
      <trkpt lat="47.89666" lon="-3.98158">
        <ele>1.1</ele>
        <time>2019-02-12T14:52:58Z</time>
      </trkpt>
      <trkpt lat="47.8965" lon="-3.98143">
        <ele>2.4</ele>
        <time>2019-02-12T14:53:15Z</time>
      </trkpt>
      <trkpt lat="47.8964" lon="-3.98118">
        <ele>1.38</ele>
        <time>2019-02-12T14:53:32Z</time>
      </trkpt>
      <trkpt lat="47.89627" lon="-3.981">
        <ele>1.1</ele>
        <time>2019-02-12T14:53:48Z</time>
      </trkpt>
      <trkpt lat="47.89608" lon="-3.98101">
        <ele>1.8</ele>
        <time>2019-02-12T14:54:05Z</time>
      </trkpt>
      <trkpt lat="47.8959" lon="-3.98101">
        <ele>3.34</ele>
        <time>2019-02-12T14:54:37Z</time>
      </trkpt>
      <trkpt lat="47.89571" lon="-3.98098">
        <ele>4.08</ele>
        <time>2019-02-12T14:54:55Z</time>
      </trkpt>
      <trkpt lat="47.89552" lon="-3.98091">
        <ele>4.79</ele>
        <time>2019-02-12T14:55:12Z</time>
      </trkpt>
      <trkpt lat="47.89534" lon="-3.98084">
        <ele>4.17</ele>
        <time>2019-02-12T14:55:28Z</time>
      </trkpt>
      <trkpt lat="47.89517" lon="-3.98071">
        <ele>1.13</ele>
        <time>2019-02-12T14:55:49Z</time>
      </trkpt>
      <trkpt lat="47.89499" lon="-3.98061">
        <ele>-0.6</ele>
        <time>2019-02-12T14:56:17Z</time>
      </trkpt>
      <trkpt lat="47.89484" lon="-3.98044">
        <ele>-2.81</ele>
        <time>2019-02-12T14:56:51Z</time>
      </trkpt>
      <trkpt lat="47.89472" lon="-3.98065">
        <ele>0.12</ele>
        <time>2019-02-12T14:57:44Z</time>
      </trkpt>
      <trkpt lat="47.89459" lon="-3.98084">
        <ele>-0.9</ele>
        <time>2019-02-12T14:57:58Z</time>
      </trkpt>
      <trkpt lat="47.89444" lon="-3.98098">
        <ele>-0.2</ele>
        <time>2019-02-12T14:58:10Z</time>
      </trkpt>
      <trkpt lat="47.89428" lon="-3.98115">
        <ele>-0.83</ele>
        <time>2019-02-12T14:58:23Z</time>
      </trkpt>
      <trkpt lat="47.89414" lon="-3.98132">
        <ele>-0.69</ele>
        <time>2019-02-12T14:58:36Z</time>
      </trkpt>
      <trkpt lat="47.89404" lon="-3.98156">
        <ele>0.08</ele>
        <time>2019-02-12T14:58:49Z</time>
      </trkpt>
      <trkpt lat="47.89393" lon="-3.98179">
        <ele>0.1</ele>
        <time>2019-02-12T14:59:01Z</time>
      </trkpt>
      <trkpt lat="47.89379" lon="-3.98199">
        <ele>-0.6</ele>
        <time>2019-02-12T14:59:14Z</time>
      </trkpt>
      <trkpt lat="47.89365" lon="-3.98215">
        <ele>0.1</ele>
        <time>2019-02-12T14:59:28Z</time>
      </trkpt>
      <trkpt lat="47.8935" lon="-3.98232">
        <ele>0.1</ele>
        <time>2019-02-12T14:59:50Z</time>
      </trkpt>
      <trkpt lat="47.89333" lon="-3.98243">
        <ele>-0.99</ele>
        <time>2019-02-12T15:00:10Z</time>
      </trkpt>
      <trkpt lat="47.89338" lon="-3.9827">
        <ele>-0.2</ele>
        <time>2019-02-12T15:00:27Z</time>
      </trkpt>
      <trkpt lat="47.89348" lon="-3.98294">
        <ele>0.1</ele>
        <time>2019-02-12T15:00:41Z</time>
      </trkpt>
      <trkpt lat="47.89361" lon="-3.98314">
        <ele>1.1</ele>
        <time>2019-02-12T15:00:57Z</time>
      </trkpt>
      <trkpt lat="47.89374" lon="-3.98335">
        <ele>0.8</ele>
        <time>2019-02-12T15:01:12Z</time>
      </trkpt>
      <trkpt lat="47.89388" lon="-3.98353">
        <ele>0.1</ele>
        <time>2019-02-12T15:02:39Z</time>
      </trkpt>
      <trkpt lat="47.89399" lon="-3.98375">
        <ele>2.1</ele>
        <time>2019-02-12T15:14:33Z</time>
      </trkpt>
      <trkpt lat="47.8941" lon="-3.98396">
        <ele>2.1</ele>
        <time>2019-02-12T15:14:56Z</time>
      </trkpt>
      <trkpt lat="47.8942" lon="-3.9842">
        <ele>1.12</ele>
        <time>2019-02-12T15:15:16Z</time>
      </trkpt>
      <trkpt lat="47.89429" lon="-3.98443">
        <ele>1.1</ele>
        <time>2019-02-12T15:15:33Z</time>
      </trkpt>
      <trkpt lat="47.89441" lon="-3.98463">
        <ele>1.8</ele>
        <time>2019-02-12T15:15:50Z</time>
      </trkpt>
      <trkpt lat="47.89457" lon="-3.98479">
        <ele>3.08</ele>
        <time>2019-02-12T15:16:06Z</time>
      </trkpt>
      <trkpt lat="47.89473" lon="-3.98494">
        <ele>3.08</ele>
        <time>2019-02-12T15:16:22Z</time>
      </trkpt>
      <trkpt lat="47.89489" lon="-3.98506">
        <ele>1.4</ele>
        <time>2019-02-12T15:16:39Z</time>
      </trkpt>
      <trkpt lat="47.89507" lon="-3.98516">
        <ele>1.1</ele>
        <time>2019-02-12T15:16:55Z</time>
      </trkpt>
      <trkpt lat="47.89525" lon="-3.98517">
        <ele>4.1</ele>
        <time>2019-02-12T15:17:10Z</time>
      </trkpt>
      <trkpt lat="47.89543" lon="-3.98514">
        <ele>4.1</ele>
        <time>2019-02-12T15:17:29Z</time>
      </trkpt>
      <trkpt lat="47.89558" lon="-3.98532">
        <ele>2.04</ele>
        <time>2019-02-12T15:17:47Z</time>
      </trkpt>
      <trkpt lat="47.89571" lon="-3.9855">
        <ele>0.8</ele>
        <time>2019-02-12T15:18:05Z</time>
      </trkpt>
      <trkpt lat="47.89586" lon="-3.98567">
        <ele>2.1</ele>
        <time>2019-02-12T15:18:24Z</time>
      </trkpt>
      <trkpt lat="47.89591" lon="-3.98593">
        <ele>4.38</ele>
        <time>2019-02-12T15:18:42Z</time>
      </trkpt>
      <trkpt lat="47.8958" lon="-3.98615">
        <ele>0.43</ele>
        <time>2019-02-12T15:19:15Z</time>
      </trkpt>
      <trkpt lat="47.89568" lon="-3.98638">
        <ele>-1.2</ele>
        <time>2019-02-12T15:19:39Z</time>
      </trkpt>
      <trkpt lat="47.89565" lon="-3.98665">
        <ele>-0.9</ele>
        <time>2019-02-12T15:20:09Z</time>
      </trkpt>
      <trkpt lat="47.89561" lon="-3.98693">
        <ele>-1.69</ele>
        <time>2019-02-12T15:20:25Z</time>
      </trkpt>
      <trkpt lat="47.89567" lon="-3.9872">
        <ele>1.07</ele>
        <time>2019-02-12T15:20:43Z</time>
      </trkpt>
      <trkpt lat="47.89566" lon="-3.98748">
        <ele>0.4</ele>
        <time>2019-02-12T15:21:09Z</time>
      </trkpt>
      <trkpt lat="47.89565" lon="-3.98776">
        <ele>1.1</ele>
        <time>2019-02-12T15:21:28Z</time>
      </trkpt>
      <trkpt lat="47.89563" lon="-3.98803">
        <ele>1.89</ele>
        <time>2019-02-12T15:21:45Z</time>
      </trkpt>
      <trkpt lat="47.8956" lon="-3.9883">
        <ele>2.08</ele>
        <time>2019-02-12T15:22:02Z</time>
      </trkpt>
      <trkpt lat="47.89559" lon="-3.98858">
        <ele>1.09</ele>
        <time>2019-02-12T15:22:21Z</time>
      </trkpt>
      <trkpt lat="47.89565" lon="-3.98884">
        <ele>3.1</ele>
        <time>2019-02-12T15:22:44Z</time>
      </trkpt>
      <trkpt lat="47.89574" lon="-3.98909">
        <ele>3.19</ele>
        <time>2019-02-12T15:23:06Z</time>
      </trkpt>
      <trkpt lat="47.89581" lon="-3.98935">
        <ele>4.1</ele>
        <time>2019-02-12T15:23:24Z</time>
      </trkpt>
      <trkpt lat="47.89593" lon="-3.98956">
        <ele>2.1</ele>
        <time>2019-02-12T15:23:40Z</time>
      </trkpt>
      <trkpt lat="47.89609" lon="-3.98971">
        <ele>1.1</ele>
        <time>2019-02-12T15:24:01Z</time>
      </trkpt>
      <trkpt lat="47.89625" lon="-3.98984">
        <ele>3.8</ele>
        <time>2019-02-12T15:24:20Z</time>
      </trkpt>
      <trkpt lat="47.8964" lon="-3.98998">
        <ele>4.1</ele>
        <time>2019-02-12T15:24:39Z</time>
      </trkpt>
      <trkpt lat="47.89659" lon="-3.99002">
        <ele>2.29</ele>
        <time>2019-02-12T15:24:58Z</time>
      </trkpt>
      <trkpt lat="47.89678" lon="-3.99008">
        <ele>1.1</ele>
        <time>2019-02-12T15:25:13Z</time>
      </trkpt>
      <trkpt lat="47.89697" lon="-3.99006">
        <ele>4.1</ele>
        <time>2019-02-12T15:25:32Z</time>
      </trkpt>
      <trkpt lat="47.89714" lon="-3.99018">
        <ele>5.1</ele>
        <time>2019-02-12T15:25:50Z</time>
      </trkpt>
      <trkpt lat="47.89733" lon="-3.99017">
        <ele>3.4</ele>
        <time>2019-02-12T15:26:09Z</time>
      </trkpt>
      <trkpt lat="47.89751" lon="-3.99024">
        <ele>3.31</ele>
        <time>2019-02-12T15:26:24Z</time>
      </trkpt>
      <trkpt lat="47.89767" lon="-3.99037">
        <ele>3.17</ele>
        <time>2019-02-12T15:26:39Z</time>
      </trkpt>
      <trkpt lat="47.89783" lon="-3.99053">
        <ele>5.4</ele>
        <time>2019-02-12T15:26:52Z</time>
      </trkpt>
      <trkpt lat="47.89799" lon="-3.99066">
        <ele>6.04</ele>
        <time>2019-02-12T15:27:08Z</time>
      </trkpt>
      <trkpt lat="47.89817" lon="-3.99071">
        <ele>7.1</ele>
        <time>2019-02-12T15:27:27Z</time>
      </trkpt>
      <trkpt lat="47.89834" lon="-3.99061">
        <ele>5.4</ele>
        <time>2019-02-12T15:27:41Z</time>
      </trkpt>
      <trkpt lat="47.89851" lon="-3.99047">
        <ele>2.13</ele>
        <time>2019-02-12T15:27:57Z</time>
      </trkpt>
      <trkpt lat="47.89865" lon="-3.99031">
        <ele>1.41</ele>
        <time>2019-02-12T15:28:12Z</time>
      </trkpt>
      <trkpt lat="47.89881" lon="-3.99016">
        <ele>2.01</ele>
        <time>2019-02-12T15:28:30Z</time>
      </trkpt>
      <trkpt lat="47.89899" lon="-3.99006">
        <ele>2.1</ele>
        <time>2019-02-12T15:28:46Z</time>
      </trkpt>
      <trkpt lat="47.89917" lon="-3.98999">
        <ele>2.81</ele>
        <time>2019-02-12T15:29:00Z</time>
      </trkpt>
      <trkpt lat="47.89935" lon="-3.98991">
        <ele>2.11</ele>
        <time>2019-02-12T15:29:15Z</time>
      </trkpt>
      <trkpt lat="47.89951" lon="-3.98977">
        <ele>3.1</ele>
        <time>2019-02-12T15:29:30Z</time>
      </trkpt>
      <trkpt lat="47.89964" lon="-3.98956">
        <ele>4.78</ele>
        <time>2019-02-12T15:29:43Z</time>
      </trkpt>
      <trkpt lat="47.89977" lon="-3.98934">
        <ele>5.79</ele>
        <time>2019-02-12T15:29:56Z</time>
      </trkpt>
      <trkpt lat="47.89986" lon="-3.98911">
        <ele>6.83</ele>
        <time>2019-02-12T15:30:13Z</time>
      </trkpt>
      <trkpt lat="47.90005" lon="-3.98909">
        <ele>5.1</ele>
        <time>2019-02-12T15:30:34Z</time>
      </trkpt>
      <trkpt lat="47.90022" lon="-3.98922">
        <ele>6.1</ele>
        <time>2019-02-12T15:30:48Z</time>
      </trkpt>
      <trkpt lat="47.9004" lon="-3.98925">
        <ele>4.1</ele>
        <time>2019-02-12T15:31:05Z</time>
      </trkpt>
      <trkpt lat="47.90059" lon="-3.98928">
        <ele>3.08</ele>
        <time>2019-02-12T15:31:21Z</time>
      </trkpt>
      <trkpt lat="47.90077" lon="-3.98936">
        <ele>5.1</ele>
        <time>2019-02-12T15:31:33Z</time>
      </trkpt>
      <trkpt lat="47.90095" lon="-3.98936">
        <ele>5.79</ele>
        <time>2019-02-12T15:31:47Z</time>
      </trkpt>
      <trkpt lat="47.90114" lon="-3.98936">
        <ele>6.1</ele>
        <time>2019-02-12T15:32:01Z</time>
      </trkpt>
      <trkpt lat="47.90132" lon="-3.98938">
        <ele>7.1</ele>
        <time>2019-02-12T15:32:19Z</time>
      </trkpt>
      <trkpt lat="47.9015" lon="-3.98939">
        <ele>7.1</ele>
        <time>2019-02-12T15:32:33Z</time>
      </trkpt>
      <trkpt lat="47.90169" lon="-3.98944">
        <ele>7.13</ele>
        <time>2019-02-12T15:32:47Z</time>
      </trkpt>
      <trkpt lat="47.90187" lon="-3.98947">
        <ele>5.1</ele>
        <time>2019-02-12T15:33:02Z</time>
      </trkpt>
      <trkpt lat="47.90205" lon="-3.98956">
        <ele>6.1</ele>
        <time>2019-02-12T15:33:17Z</time>
      </trkpt>
      <trkpt lat="47.90219" lon="-3.98974">
        <ele>6.8</ele>
        <time>2019-02-12T15:33:30Z</time>
      </trkpt>
      <trkpt lat="47.90233" lon="-3.98991">
        <ele>6.1</ele>
        <time>2019-02-12T15:33:45Z</time>
      </trkpt>
      <trkpt lat="47.9025" lon="-3.99004">
        <ele>4.13</ele>
        <time>2019-02-12T15:34:00Z</time>
      </trkpt>
      <trkpt lat="47.90267" lon="-3.99011">
        <ele>4.1</ele>
        <time>2019-02-12T15:34:21Z</time>
      </trkpt>
      <trkpt lat="47.90285" lon="-3.99018">
        <ele>8.08</ele>
        <time>2019-02-12T15:34:36Z</time>
      </trkpt>
      <trkpt lat="47.90299" lon="-3.99035">
        <ele>10.1</ele>
        <time>2019-02-12T15:34:51Z</time>
      </trkpt>
      <trkpt lat="47.90302" lon="-3.99062">
        <ele>13.1</ele>
        <time>2019-02-12T15:35:11Z</time>
      </trkpt>
      <trkpt lat="47.90308" lon="-3.9909">
        <ele>10.81</ele>
        <time>2019-02-12T15:35:28Z</time>
      </trkpt>
      <trkpt lat="47.90322" lon="-3.99108">
        <ele>10.11</ele>
        <time>2019-02-12T15:35:44Z</time>
      </trkpt>
      <trkpt lat="47.9034" lon="-3.99116">
        <ele>12.1</ele>
        <time>2019-02-12T15:35:59Z</time>
      </trkpt>
      <trkpt lat="47.90356" lon="-3.99127">
        <ele>10.19</ele>
        <time>2019-02-12T15:36:17Z</time>
      </trkpt>
      <trkpt lat="47.90373" lon="-3.99138">
        <ele>11.82</ele>
        <time>2019-02-12T15:36:33Z</time>
      </trkpt>
      <trkpt lat="47.90389" lon="-3.99151">
        <ele>12.19</ele>
        <time>2019-02-12T15:36:51Z</time>
      </trkpt>
      <trkpt lat="47.90405" lon="-3.99165">
        <ele>11.11</ele>
        <time>2019-02-12T15:37:10Z</time>
      </trkpt>
      <trkpt lat="47.90422" lon="-3.99176">
        <ele>15.01</ele>
        <time>2019-02-12T15:37:30Z</time>
      </trkpt>
      <trkpt lat="47.90436" lon="-3.99195">
        <ele>14.4</ele>
        <time>2019-02-12T15:37:52Z</time>
      </trkpt>
      <trkpt lat="47.90444" lon="-3.9922">
        <ele>14.01</ele>
        <time>2019-02-12T15:38:10Z</time>
      </trkpt>
      <trkpt lat="47.90447" lon="-3.99247">
        <ele>17.01</ele>
        <time>2019-02-12T15:38:24Z</time>
      </trkpt>
      <trkpt lat="47.90464" lon="-3.99253">
        <ele>17.1</ele>
        <time>2019-02-12T15:38:50Z</time>
      </trkpt>
      <trkpt lat="47.90479" lon="-3.99235">
        <ele>17.1</ele>
        <time>2019-02-12T15:39:06Z</time>
      </trkpt>
      <trkpt lat="47.90491" lon="-3.99214">
        <ele>20.1</ele>
        <time>2019-02-12T15:39:21Z</time>
      </trkpt>
      <trkpt lat="47.905" lon="-3.9919">
        <ele>22.11</ele>
        <time>2019-02-12T15:39:36Z</time>
      </trkpt>
      <trkpt lat="47.90504" lon="-3.99162">
        <ele>20.08</ele>
        <time>2019-02-12T15:39:53Z</time>
      </trkpt>
      <trkpt lat="47.90511" lon="-3.99136">
        <ele>22.01</ele>
        <time>2019-02-12T15:40:09Z</time>
      </trkpt>
      <trkpt lat="47.90515" lon="-3.99109">
        <ele>22.1</ele>
        <time>2019-02-12T15:40:26Z</time>
      </trkpt>
      <trkpt lat="47.90516" lon="-3.99082">
        <ele>19.11</ele>
        <time>2019-02-12T15:40:41Z</time>
      </trkpt>
      <trkpt lat="47.90512" lon="-3.99055">
        <ele>20.1</ele>
        <time>2019-02-12T15:40:57Z</time>
      </trkpt>
      <trkpt lat="47.90511" lon="-3.99028">
        <ele>20.42</ele>
        <time>2019-02-12T15:41:13Z</time>
      </trkpt>
      <trkpt lat="47.90511" lon="-3.99">
        <ele>20.13</ele>
        <time>2019-02-12T15:41:28Z</time>
      </trkpt>
      <trkpt lat="47.90516" lon="-3.98974">
        <ele>23.08</ele>
        <time>2019-02-12T15:41:44Z</time>
      </trkpt>
      <trkpt lat="47.90515" lon="-3.98947">
        <ele>23.12</ele>
        <time>2019-02-12T15:42:01Z</time>
      </trkpt>
      <trkpt lat="47.90517" lon="-3.98918">
        <ele>24.01</ele>
        <time>2019-02-12T15:42:17Z</time>
      </trkpt>
      <trkpt lat="47.90516" lon="-3.98891">
        <ele>23.11</ele>
        <time>2019-02-12T15:42:33Z</time>
      </trkpt>
      <trkpt lat="47.90514" lon="-3.98864">
        <ele>23.13</ele>
        <time>2019-02-12T15:42:56Z</time>
      </trkpt>
      <trkpt lat="47.90513" lon="-3.98836">
        <ele>25.79</ele>
        <time>2019-02-12T15:43:15Z</time>
      </trkpt>
      <trkpt lat="47.90508" lon="-3.9881">
        <ele>24.19</ele>
        <time>2019-02-12T15:43:36Z</time>
      </trkpt>
      <trkpt lat="47.9051" lon="-3.98782">
        <ele>19.13</ele>
        <time>2019-02-12T15:43:55Z</time>
      </trkpt>
      <trkpt lat="47.90503" lon="-3.98756">
        <ele>21.1</ele>
        <time>2019-02-12T15:44:14Z</time>
      </trkpt>
      <trkpt lat="47.90493" lon="-3.98733">
        <ele>22.1</ele>
        <time>2019-02-12T15:44:30Z</time>
      </trkpt>
      <trkpt lat="47.90482" lon="-3.98711">
        <ele>24.16</ele>
        <time>2019-02-12T15:44:47Z</time>
      </trkpt>
      <trkpt lat="47.90479" lon="-3.98682">
        <ele>24.11</ele>
        <time>2019-02-12T15:45:08Z</time>
      </trkpt>
      <trkpt lat="47.90463" lon="-3.98668">
        <ele>22.09</ele>
        <time>2019-02-12T15:45:27Z</time>
      </trkpt>
      <trkpt lat="47.90445" lon="-3.98657">
        <ele>21.1</ele>
        <time>2019-02-12T15:45:44Z</time>
      </trkpt>
      <trkpt lat="47.90431" lon="-3.9864">
        <ele>20.8</ele>
        <time>2019-02-12T15:46:00Z</time>
      </trkpt>
      <trkpt lat="47.90418" lon="-3.9862">
        <ele>22.1</ele>
        <time>2019-02-12T15:46:17Z</time>
      </trkpt>
      <trkpt lat="47.90402" lon="-3.98607">
        <ele>22.19</ele>
        <time>2019-02-12T15:46:36Z</time>
      </trkpt>
      <trkpt lat="47.90382" lon="-3.98606">
        <ele>22.1</ele>
        <time>2019-02-12T15:46:50Z</time>
      </trkpt>
      <trkpt lat="47.90364" lon="-3.98604">
        <ele>22.1</ele>
        <time>2019-02-12T15:47:07Z</time>
      </trkpt>
      <trkpt lat="47.90345" lon="-3.986">
        <ele>20.1</ele>
        <time>2019-02-12T15:47:24Z</time>
      </trkpt>
      <trkpt lat="47.90326" lon="-3.98595">
        <ele>21.08</ele>
        <time>2019-02-12T15:47:40Z</time>
      </trkpt>
      <trkpt lat="47.90309" lon="-3.98587">
        <ele>18.98</ele>
        <time>2019-02-12T15:47:56Z</time>
      </trkpt>
      <trkpt lat="47.9029" lon="-3.98587">
        <ele>20.78</ele>
        <time>2019-02-12T15:48:11Z</time>
      </trkpt>
      <trkpt lat="47.90272" lon="-3.9859">
        <ele>20.89</ele>
        <time>2019-02-12T15:48:26Z</time>
      </trkpt>
      <trkpt lat="47.90254" lon="-3.98592">
        <ele>21.19</ele>
        <time>2019-02-12T15:48:44Z</time>
      </trkpt>
      <trkpt lat="47.90235" lon="-3.98591">
        <ele>21.12</ele>
        <time>2019-02-12T15:49:01Z</time>
      </trkpt>
      <trkpt lat="47.90216" lon="-3.9859">
        <ele>22.1</ele>
        <time>2019-02-12T15:49:18Z</time>
      </trkpt>
      <trkpt lat="47.90198" lon="-3.98589">
        <ele>22.19</ele>
        <time>2019-02-12T15:49:34Z</time>
      </trkpt>
      <trkpt lat="47.90179" lon="-3.98588">
        <ele>20.4</ele>
        <time>2019-02-12T15:49:53Z</time>
      </trkpt>
      <trkpt lat="47.9016" lon="-3.9859">
        <ele>19.1</ele>
        <time>2019-02-12T15:50:08Z</time>
      </trkpt>
      <trkpt lat="47.90141" lon="-3.98586">
        <ele>19.4</ele>
        <time>2019-02-12T15:50:24Z</time>
      </trkpt>
      <trkpt lat="47.90122" lon="-3.98584">
        <ele>20.16</ele>
        <time>2019-02-12T15:50:41Z</time>
      </trkpt>
      <trkpt lat="47.90105" lon="-3.98578">
        <ele>22.1</ele>
        <time>2019-02-12T15:50:57Z</time>
      </trkpt>
      <trkpt lat="47.90088" lon="-3.98565">
        <ele>23.17</ele>
        <time>2019-02-12T15:51:13Z</time>
      </trkpt>
      <trkpt lat="47.90073" lon="-3.98549">
        <ele>24.09</ele>
        <time>2019-02-12T15:51:30Z</time>
      </trkpt>
      <trkpt lat="47.90055" lon="-3.98539">
        <ele>24.1</ele>
        <time>2019-02-12T15:51:44Z</time>
      </trkpt>
      <trkpt lat="47.90036" lon="-3.98538">
        <ele>24.1</ele>
        <time>2019-02-12T15:52:01Z</time>
      </trkpt>
      <trkpt lat="47.90017" lon="-3.98538">
        <ele>23.4</ele>
        <time>2019-02-12T15:52:15Z</time>
      </trkpt>
      <trkpt lat="47.89999" lon="-3.98543">
        <ele>23.19</ele>
        <time>2019-02-12T15:52:33Z</time>
      </trkpt>
      <trkpt lat="47.8998" lon="-3.98543">
        <ele>22.11</ele>
        <time>2019-02-12T15:52:49Z</time>
      </trkpt>
      <trkpt lat="47.89977" lon="-3.98515">
        <ele>22.02</ele>
        <time>2019-02-12T15:53:05Z</time>
      </trkpt>
      <trkpt lat="47.89976" lon="-3.98487">
        <ele>23.1</ele>
        <time>2019-02-12T15:53:23Z</time>
      </trkpt>
      <trkpt lat="47.89973" lon="-3.9846">
        <ele>24.1</ele>
        <time>2019-02-12T15:53:39Z</time>
      </trkpt>
      <trkpt lat="47.89956" lon="-3.9845">
        <ele>24.1</ele>
        <time>2019-02-12T15:54:01Z</time>
      </trkpt>
      <trkpt lat="47.89953" lon="-3.98422">
        <ele>21.1</ele>
        <time>2019-02-12T15:54:23Z</time>
      </trkpt>
      <trkpt lat="47.89949" lon="-3.98396">
        <ele>21.1</ele>
        <time>2019-02-12T15:54:41Z</time>
      </trkpt>
      <trkpt lat="47.89941" lon="-3.9837">
        <ele>21.01</ele>
        <time>2019-02-12T15:54:59Z</time>
      </trkpt>
      <trkpt lat="47.89934" lon="-3.98345">
        <ele>19.4</ele>
        <time>2019-02-12T15:55:15Z</time>
      </trkpt>
      <trkpt lat="47.89928" lon="-3.98318">
        <ele>17.42</ele>
        <time>2019-02-12T15:55:30Z</time>
      </trkpt>
      <trkpt lat="47.89919" lon="-3.98293">
        <ele>15.1</ele>
        <time>2019-02-12T15:55:47Z</time>
      </trkpt>
      <trkpt lat="47.89912" lon="-3.98266">
        <ele>12.81</ele>
        <time>2019-02-12T15:56:06Z</time>
      </trkpt>
      <trkpt lat="47.89903" lon="-3.98242">
        <ele>16.17</ele>
        <time>2019-02-12T15:56:20Z</time>
      </trkpt>
      <trkpt lat="47.899" lon="-3.98215">
        <ele>11.13</ele>
        <time>2019-02-12T15:56:35Z</time>
      </trkpt>
      <trkpt lat="47.89912" lon="-3.98194">
        <ele>10.1</ele>
        <time>2019-02-12T15:56:52Z</time>
      </trkpt>
      <trkpt lat="47.8993" lon="-3.98189">
        <ele>9.08</ele>
        <time>2019-02-12T15:57:13Z</time>
      </trkpt>
      <trkpt lat="47.89948" lon="-3.9818">
        <ele>9.13</ele>
        <time>2019-02-12T15:57:26Z</time>
      </trkpt>
      <trkpt lat="47.89965" lon="-3.98166">
        <ele>8.1</ele>
        <time>2019-02-12T15:57:41Z</time>
      </trkpt>
      <trkpt lat="47.89981" lon="-3.98154">
        <ele>8.01</ele>
        <time>2019-02-12T15:57:58Z</time>
      </trkpt>
      <trkpt lat="47.89997" lon="-3.9814">
        <ele>10.1</ele>
        <time>2019-02-12T15:58:16Z</time>
      </trkpt>
      <trkpt lat="47.90014" lon="-3.98132">
        <ele>10.4</ele>
        <time>2019-02-12T15:58:34Z</time>
      </trkpt>
      <trkpt lat="47.90033" lon="-3.98131">
        <ele>13.1</ele>
        <time>2019-02-12T15:58:49Z</time>
      </trkpt>
      <trkpt lat="47.90052" lon="-3.9813">
        <ele>12.1</ele>
        <time>2019-02-12T15:59:05Z</time>
      </trkpt>
      <trkpt lat="47.9007" lon="-3.98125">
        <ele>12.1</ele>
        <time>2019-02-12T15:59:22Z</time>
      </trkpt>
      <trkpt lat="47.90087" lon="-3.98115">
        <ele>11.8</ele>
        <time>2019-02-12T15:59:40Z</time>
      </trkpt>
      <trkpt lat="47.90104" lon="-3.98103">
        <ele>13.1</ele>
        <time>2019-02-12T15:59:56Z</time>
      </trkpt>
      <trkpt lat="47.90121" lon="-3.98093">
        <ele>14.08</ele>
        <time>2019-02-12T16:00:13Z</time>
      </trkpt>
      <trkpt lat="47.90138" lon="-3.98084">
        <ele>14.08</ele>
        <time>2019-02-12T16:00:29Z</time>
      </trkpt>
      <trkpt lat="47.90156" lon="-3.98077">
        <ele>18.1</ele>
        <time>2019-02-12T16:00:47Z</time>
      </trkpt>
      <trkpt lat="47.90174" lon="-3.98065">
        <ele>14.51</ele>
        <time>2019-02-12T16:01:01Z</time>
      </trkpt>
      <trkpt lat="47.90192" lon="-3.98065">
        <ele>10.1</ele>
        <time>2019-02-12T16:01:18Z</time>
      </trkpt>
      <trkpt lat="47.90211" lon="-3.98066">
        <ele>10.11</ele>
        <time>2019-02-12T16:01:35Z</time>
      </trkpt>
      <trkpt lat="47.90229" lon="-3.98061">
        <ele>8.84</ele>
        <time>2019-02-12T16:01:52Z</time>
      </trkpt>
      <trkpt lat="47.90236" lon="-3.98035">
        <ele>6.4</ele>
        <time>2019-02-12T16:02:08Z</time>
      </trkpt>
      <trkpt lat="47.90246" lon="-3.98013">
        <ele>6.43</ele>
        <time>2019-02-12T16:02:24Z</time>
      </trkpt>
      <trkpt lat="47.90252" lon="-3.97987">
        <ele>6.19</ele>
        <time>2019-02-12T16:02:40Z</time>
      </trkpt>
      <trkpt lat="47.90244" lon="-3.97962">
        <ele>6.1</ele>
        <time>2019-02-12T16:02:58Z</time>
      </trkpt>
      <trkpt lat="47.90259" lon="-3.97945">
        <ele>5.1</ele>
        <time>2019-02-12T16:03:16Z</time>
      </trkpt>
      <trkpt lat="47.90278" lon="-3.97942">
        <ele>2.1</ele>
        <time>2019-02-12T16:03:40Z</time>
      </trkpt>
      <trkpt lat="47.90292" lon="-3.97959">
        <ele>3.19</ele>
        <time>2019-02-12T16:03:57Z</time>
      </trkpt>
      <trkpt lat="47.90308" lon="-3.97973">
        <ele>1.11</ele>
        <time>2019-02-12T16:04:12Z</time>
      </trkpt>
      <trkpt lat="47.90326" lon="-3.97981">
        <ele>3.01</ele>
        <time>2019-02-12T16:04:30Z</time>
      </trkpt>
      <trkpt lat="47.90338" lon="-3.97961">
        <ele>5.81</ele>
        <time>2019-02-12T16:04:50Z</time>
      </trkpt>
      <trkpt lat="47.90349" lon="-3.9794">
        <ele>7.38</ele>
        <time>2019-02-12T16:05:07Z</time>
      </trkpt>
      <trkpt lat="47.90362" lon="-3.9792">
        <ele>7.1</ele>
        <time>2019-02-12T16:05:24Z</time>
      </trkpt>
      <trkpt lat="47.90376" lon="-3.97902">
        <ele>8.08</ele>
        <time>2019-02-12T16:05:41Z</time>
      </trkpt>
      <trkpt lat="47.90395" lon="-3.97904">
        <ele>7.1</ele>
        <time>2019-02-12T16:05:57Z</time>
      </trkpt>
      <trkpt lat="47.90413" lon="-3.97908">
        <ele>6.11</ele>
        <time>2019-02-12T16:06:13Z</time>
      </trkpt>
      <trkpt lat="47.90432" lon="-3.97912">
        <ele>8.1</ele>
        <time>2019-02-12T16:06:27Z</time>
      </trkpt>
      <trkpt lat="47.90449" lon="-3.97916">
        <ele>6.1</ele>
        <time>2019-02-12T16:06:44Z</time>
      </trkpt>
      <trkpt lat="47.90468" lon="-3.97924">
        <ele>6.1</ele>
        <time>2019-02-12T16:06:59Z</time>
      </trkpt>
      <trkpt lat="47.90486" lon="-3.97937">
        <ele>5.1</ele>
        <time>2019-02-12T16:07:19Z</time>
      </trkpt>
      <trkpt lat="47.90505" lon="-3.97939">
        <ele>3.11</ele>
        <time>2019-02-12T16:07:34Z</time>
      </trkpt>
      <trkpt lat="47.90524" lon="-3.97936">
        <ele>2.89</ele>
        <time>2019-02-12T16:07:48Z</time>
      </trkpt>
      <trkpt lat="47.90541" lon="-3.97924">
        <ele>3.1</ele>
        <time>2019-02-12T16:08:03Z</time>
      </trkpt>
      <trkpt lat="47.90559" lon="-3.97916">
        <ele>6.1</ele>
        <time>2019-02-12T16:08:22Z</time>
      </trkpt>
      <trkpt lat="47.90578" lon="-3.97913">
        <ele>4.11</ele>
        <time>2019-02-12T16:08:36Z</time>
      </trkpt>
      <trkpt lat="47.90595" lon="-3.97921">
        <ele>3.19</ele>
        <time>2019-02-12T16:08:52Z</time>
      </trkpt>
      <trkpt lat="47.90614" lon="-3.9792">
        <ele>4.11</ele>
        <time>2019-02-12T16:09:21Z</time>
      </trkpt>
      <trkpt lat="47.90633" lon="-3.97914">
        <ele>1.1</ele>
        <time>2019-02-12T16:09:39Z</time>
      </trkpt>
      <trkpt lat="47.90651" lon="-3.97913">
        <ele>2.59</ele>
        <time>2019-02-12T16:09:54Z</time>
      </trkpt>
      <trkpt lat="47.90669" lon="-3.97905">
        <ele>2.19</ele>
        <time>2019-02-12T16:10:09Z</time>
      </trkpt>
      <trkpt lat="47.90687" lon="-3.97897">
        <ele>-0.6</ele>
        <time>2019-02-12T16:10:26Z</time>
      </trkpt>
      <trkpt lat="47.90706" lon="-3.97891">
        <ele>-0.6</ele>
        <time>2019-02-12T16:10:41Z</time>
      </trkpt>
      <trkpt lat="47.90724" lon="-3.97885">
        <ele>1.1</ele>
        <time>2019-02-12T16:10:57Z</time>
      </trkpt>
      <trkpt lat="47.90742" lon="-3.97878">
        <ele>0.1</ele>
        <time>2019-02-12T16:11:12Z</time>
      </trkpt>
      <trkpt lat="47.90759" lon="-3.97868">
        <ele>1.31</ele>
        <time>2019-02-12T16:11:27Z</time>
      </trkpt>
      <trkpt lat="47.90775" lon="-3.97855">
        <ele>0.11</ele>
        <time>2019-02-12T16:11:42Z</time>
      </trkpt>
      <trkpt lat="47.90793" lon="-3.97848">
        <ele>-0.81</ele>
        <time>2019-02-12T16:11:58Z</time>
      </trkpt>
      <trkpt lat="47.90811" lon="-3.97844">
        <ele>-0.9</ele>
        <time>2019-02-12T16:12:15Z</time>
      </trkpt>
      <trkpt lat="47.9083" lon="-3.97843">
        <ele>0.1</ele>
        <time>2019-02-12T16:12:30Z</time>
      </trkpt>
      <trkpt lat="47.90849" lon="-3.97844">
        <ele>1.11</ele>
        <time>2019-02-12T16:12:45Z</time>
      </trkpt>
      <trkpt lat="47.90867" lon="-3.97845">
        <ele>1.1</ele>
        <time>2019-02-12T16:13:01Z</time>
      </trkpt>
      <trkpt lat="47.90886" lon="-3.97842">
        <ele>1.8</ele>
        <time>2019-02-12T16:13:22Z</time>
      </trkpt>
      <trkpt lat="47.90899" lon="-3.97823">
        <ele>3.1</ele>
        <time>2019-02-12T16:13:41Z</time>
      </trkpt>
    </trkseg>
  </trk>
</gpx>